Time;durP1;ratioP1;P1;durP2;ratioP2;P2;SDS_P1;SDS_P2;PMS_P1;PMS_P2;Temp;Humidity;BMP_temperature;BMP_pressure;BME280_temperature;BME280_humidity;BME280_pressure;Samples;Min_cycle;Max_cycle;Signal;HPM_P1;HPM_P2
2021/01/18 00:00:55;;;;;;;25.37;10.33;;;4.40;95.20;;;;;;5055404;28;20431;-84
2021/01/18 00:03:20;;;;;;;19.03;9.90;;;4.40;95.20;;;;;;5011321;28;20428;-83
2021/01/18 00:05:46;;;;;;;28.07;10.20;;;4.40;95.20;;;;;;5035948;28;20452;-84
2021/01/18 00:08:12;;;;;;;33.40;10.70;;;4.40;95.20;;;;;;5051257;28;20562;-84
2021/01/18 00:10:40;;;;;;;20.70;10.27;;;4.40;95.20;;;;;;5023402;28;20773;-86
2021/01/18 00:13:06;;;;;;;25.90;10.80;;;4.40;95.20;;;;;;5059432;28;20420;-84
2021/01/18 00:15:32;;;;;;;26.10;10.50;;;4.40;95.20;;;;;;5050268;28;20439;-83
2021/01/18 00:17:58;;;;;;;21.50;11.63;;;4.30;95.20;;;;;;5068981;28;20408;-83
2021/01/18 00:20:24;;;;;;;30.17;11.70;;;4.40;95.30;;;;;;5042587;28;20170;-82
2021/01/18 00:22:50;;;;;;;31.23;12.10;;;4.40;95.30;;;;;;5074566;28;20301;-84
2021/01/18 00:25:16;;;;;;;22.83;11.60;;;4.40;95.30;;;;;;5032605;28;20524;-83
2021/01/18 00:27:45;;;;;;;31.57;11.50;;;4.30;95.20;;;;;;5053729;28;20166;-85
2021/01/18 00:30:17;;;;;;;34.90;10.77;;;4.40;95.30;;;;;;5053767;28;20436;-83
2021/01/18 00:32:43;;;;;;;29.43;11.20;;;4.30;95.20;;;;;;5029224;28;20423;-87
2021/01/18 00:35:12;;;;;;;31.03;13.37;;;4.30;95.20;;;;;;5044786;28;20471;-85
2021/01/18 00:37:49;;;;;;;36.33;11.60;;;4.30;95.30;;;;;;5046958;28;20466;-87
2021/01/18 00:40:17;;;;;;;27.07;12.00;;;4.30;95.30;;;;;;5060758;28;20391;-87
2021/01/18 00:42:47;;;;;;;28.23;11.40;;;4.30;95.30;;;;;;5041954;28;20421;-85
2021/01/18 00:45:15;;;;;;;18.10;10.27;;;4.30;95.30;;;;;;5021028;28;21009;-84
2021/01/18 00:47:46;;;;;;;29.00;11.80;;;4.40;95.30;;;;;;5059427;28;20415;-85
2021/01/18 00:50:22;;;;;;;34.73;11.20;;;4.40;95.20;;;;;;5042180;28;20484;-86
2021/01/18 00:52:56;;;;;;;20.60;9.77;;;4.40;95.20;;;;;;5051840;28;20415;-85
2021/01/18 00:55:24;;;;;;;29.50;11.47;;;4.40;95.20;;;;;;5045993;28;20491;-84
2021/01/18 00:58:17;;;;;;;26.23;11.40;;;4.40;95.20;;;;;;5041084;28;20420;-86
2021/01/18 01:00:57;;;;;;;41.10;13.57;;;4.40;95.20;;;;;;5025285;28;20409;-85
2021/01/18 01:03:26;;;;;;;22.67;12.53;;;4.40;95.20;;;;;;5031424;28;20506;-83
2021/01/18 01:05:55;;;;;;;24.63;12.13;;;4.40;95.10;;;;;;5041574;28;20557;-84
2021/01/18 01:08:21;;;;;;;21.97;11.47;;;4.40;95.10;;;;;;5038418;28;20495;-85
2021/01/18 01:10:47;;;;;;;25.63;10.53;;;4.40;95.00;;;;;;5027147;28;20456;-84
2021/01/18 01:13:15;;;;;;;24.97;11.60;;;4.40;95.00;;;;;;5008699;28;20167;-84
2021/01/18 01:15:43;;;;;;;25.03;12.17;;;4.40;95.00;;;;;;5024369;28;20572;-83
2021/01/18 01:18:12;;;;;;;36.37;13.53;;;4.40;95.00;;;;;;5018627;28;20178;-85
2021/01/18 01:20:41;;;;;;;23.20;11.43;;;4.30;94.90;;;;;;5042138;28;20484;-84
2021/01/18 01:23:06;;;;;;;26.67;11.03;;;4.40;95.00;;;;;;5027121;28;20404;-84
2021/01/18 01:25:46;;;;;;;30.50;11.63;;;4.40;95.00;;;;;;5029752;28;20457;-84
2021/01/18 01:28:31;;;;;;;35.80;12.20;;;4.30;94.90;;;;;;5024425;28;20222;-84
2021/01/18 01:31:05;;;;;;;26.10;12.17;;;4.30;94.90;;;;;;5024040;28;20432;-83
2021/01/18 01:34:05;;;;;;;19.40;9.80;;;4.30;94.80;;;;;;5040018;28;20405;-84
2021/01/18 01:36:40;;;;;;;32.07;11.87;;;4.30;94.80;;;;;;5006491;28;20839;-83
2021/01/18 01:39:08;;;;;;;20.03;11.00;;;4.30;94.70;;;;;;5023614;28;20473;-84
2021/01/18 01:41:40;;;;;;;24.87;11.63;;;4.30;94.70;;;;;;5021815;28;20441;-83
2021/01/18 01:44:14;;;;;;;25.77;11.50;;;4.30;94.60;;;;;;5022630;28;20185;-83
2021/01/18 01:46:43;;;;;;;24.70;10.97;;;4.30;94.50;;;;;;5041967;28;20473;-84
2021/01/18 01:49:15;;;;;;;42.77;13.80;;;4.30;94.50;;;;;;5039012;28;20420;-84
2021/01/18 01:51:41;;;;;;;30.30;13.80;;;4.30;94.40;;;;;;5022944;28;20516;-85
2021/01/18 01:54:16;;;;;;;31.43;13.30;;;4.30;94.50;;;;;;5006543;28;20988;-85
2021/01/18 01:56:54;;;;;;;;;;;;;;;;;;;;;
2021/01/18 01:59:22;;;;;;;25.23;12.07;;;4.30;94.40;;;;;;5041355;28;20431;-84
2021/01/18 02:01:54;;;;;;;29.47;13.53;;;4.30;94.40;;;;;;5039820;28;20412;-85
2021/01/18 02:04:34;;;;;;;34.37;13.60;;;4.30;94.40;;;;;;5042163;28;20401;-85
2021/01/18 02:07:26;;;;;;;24.77;13.23;;;4.30;94.40;;;;;;5018248;28;20443;-83
2021/01/18 02:09:57;;;;;;;34.73;14.27;;;4.30;94.40;;;;;;5026892;28;20398;-85
2021/01/18 02:12:25;;;;;;;24.80;13.63;;;4.20;94.30;;;;;;5025706;28;20435;-83
2021/01/18 02:14:51;;;;;;;31.13;14.03;;;4.30;94.40;;;;;;5024739;28;20756;-83
2021/01/18 02:17:55;;;;;;;37.60;14.33;;;4.30;94.40;;;;;;5040526;28;20456;-84
2021/01/18 02:20:56;;;;;;;25.77;13.57;;;4.20;94.40;;;;;;5014758;28;20209;-83
2021/01/18 02:23:55;;;;;;;23.37;11.97;;;4.20;94.40;;;;;;5027313;28;20442;-84
2021/01/18 02:26:47;;;;;;;29.20;12.67;;;4.20;94.50;;;;;;5010770;28;20569;-84
2021/01/18 02:29:43;;;;;;;31.27;12.80;;;4.20;94.40;;;;;;5031008;28;20452;-84
2021/01/18 02:32:53;;;;;;;25.27;12.27;;;4.20;94.40;;;;;;5015718;28;20456;-84
2021/01/18 02:36:04;;;;;;;20.70;11.67;;;4.20;94.30;;;;;;5017457;28;20447;-85
2021/01/18 02:38:48;;;;;;;29.93;13.03;;;4.20;94.20;;;;;;5037685;28;20420;-84
2021/01/18 02:41:29;;;;;;;35.57;13.77;;;4.20;94.20;;;;;;5028361;28;20413;-84
2021/01/18 02:44:05;;;;;;;25.83;12.40;;;4.20;94.10;;;;;;5045949;28;20443;-85
2021/01/18 02:46:35;;;;;;;27.83;11.50;;;4.20;94.10;;;;;;5032225;28;20509;-85
2021/01/18 02:49:12;;;;;;;20.90;11.03;;;4.20;94.10;;;;;;5053477;28;20452;-84
2021/01/18 02:51:45;;;;;;;19.87;10.40;;;4.20;94.00;;;;;;5037051;28;20427;-84
2021/01/18 02:54:13;;;;;;;22.60;10.37;;;4.10;93.90;;;;;;5035606;28;20428;-83
2021/01/18 02:56:45;;;;;;;18.27;9.57;;;4.10;93.90;;;;;;5054058;28;20849;-84
2021/01/18 02:59:16;;;;;;;24.73;10.23;;;4.10;93.90;;;;;;5051749;28;20423;-84
2021/01/18 03:01:52;;;;;;;20.30;9.30;;;4.10;93.90;;;;;;5014283;28;20488;-85
2021/01/18 03:04:47;;;;;;;17.23;8.00;;;4.10;93.90;;;;;;5015287;28;20408;-84
2021/01/18 03:07:54;;;;;;;15.80;7.50;;;4.10;93.80;;;;;;5016213;28;20480;-84
2021/01/18 03:10:43;;;;;;;20.00;8.40;;;4.10;93.70;;;;;;5026477;28;20420;-82
2021/01/18 03:13:39;;;;;;;19.83;7.17;;;4.10;93.60;;;;;;5024931;28;20408;-84
2021/01/18 03:16:16;;;;;;;15.40;7.93;;;4.10;93.60;;;;;;5040043;28;20420;-84
2021/01/18 03:18:55;;;;;;;21.30;7.53;;;4.10;93.50;;;;;;5064351;28;20536;-82
2021/01/18 03:21:24;;;;;;;15.73;8.70;;;4.00;93.30;;;;;;5041925;28;20506;-84
2021/01/18 03:23:52;;;;;;;20.33;8.27;;;4.00;93.20;;;;;;5025035;28;20420;-83
2021/01/18 03:26:28;;;;;;;21.50;8.60;;;4.00;93.20;;;;;;5042480;28;20521;-83
2021/01/18 03:28:58;;;;;;;18.10;8.53;;;4.00;93.30;;;;;;5060359;28;20419;-83
2021/01/18 03:31:24;;;;;;;24.40;7.30;;;4.00;93.30;;;;;;5041917;28;20419;-83
2021/01/18 03:34:02;;;;;;;;;;;;;;;;;;;;;
2021/01/18 03:36:32;;;;;;;17.43;8.90;;;4.00;93.20;;;;;;5041788;28;20534;-83
2021/01/18 03:39:01;;;;;;;26.00;9.47;;;4.00;93.10;;;;;;5040114;28;20488;-83
2021/01/18 03:41:27;;;;;;;15.10;7.87;;;4.00;93.10;;;;;;5057904;28;20427;-83
2021/01/18 03:43:52;;;;;;;14.13;8.60;;;4.00;93.00;;;;;;5023006;28;20409;-84
2021/01/18 03:46:18;;;;;;;19.30;8.30;;;4.00;93.00;;;;;;5020479;28;20263;-84
2021/01/18 03:48:46;;;;;;;25.47;8.70;;;4.00;93.10;;;;;;5021872;28;20178;-83
2021/01/18 03:51:12;;;;;;;24.40;8.73;;;4.00;93.10;;;;;;5042230;28;20256;-84
2021/01/18 03:53:44;;;;;;;24.23;8.40;;;4.00;93.10;;;;;;5050901;28;20443;-84
2021/01/18 03:56:13;;;;;;;15.50;8.30;;;4.00;93.10;;;;;;5046025;28;21037;-84
2021/01/18 03:58:55;;;;;;;15.90;8.57;;;4.00;93.10;;;;;;5034120;28;20898;-83
2021/01/18 04:01:24;;;;;;;19.00;8.10;;;4.00;93.10;;;;;;5053361;28;20491;-83
2021/01/18 04:03:51;;;;;;;14.17;8.10;;;4.00;93.10;;;;;;5039959;28;20543;-82
2021/01/18 04:06:19;;;;;;;15.13;7.90;;;4.10;93.20;;;;;;5023751;28;20468;-84
2021/01/18 04:08:55;;;;;;;12.60;7.70;;;4.10;93.10;;;;;;5052036;28;20201;-84
2021/01/18 04:11:24;;;;;;;13.00;8.20;;;4.10;93.10;;;;;;5043870;28;20427;-83
2021/01/18 04:13:59;;;;;;;36.13;8.80;;;4.00;93.00;;;;;;5043056;28;20408;-82
2021/01/18 04:16:44;;;;;;;15.33;7.07;;;4.00;93.00;;;;;;5060313;28;20495;-84
2021/01/18 04:19:20;;;;;;;12.20;6.87;;;4.00;93.00;;;;;;5025747;28;20424;-82
2021/01/18 04:21:48;;;;;;;23.90;9.50;;;4.00;93.10;;;;;;5044606;28;20417;-84
2021/01/18 04:24:15;;;;;;;18.80;9.40;;;4.00;93.00;;;;;;5006163;28;20440;-84
2021/01/18 04:26:49;;;;;;;18.53;8.60;;;4.00;93.10;;;;;;5008813;28;20467;-83
2021/01/18 04:29:15;;;;;;;17.17;9.70;;;4.00;93.10;;;;;;5023116;28;20484;-84
2021/01/18 04:31:41;;;;;;;21.80;8.90;;;4.00;93.10;;;;;;5027356;28;20514;-84
2021/01/18 04:34:11;;;;;;;17.67;8.83;;;4.00;93.10;;;;;;5042282;28;20405;-83
2021/01/18 04:36:38;;;;;;;17.27;8.93;;;4.00;93.10;;;;;;5032888;28;20448;-85
2021/01/18 04:39:11;;;;;;;15.90;8.10;;;4.00;93.10;;;;;;5036332;28;20433;-84
2021/01/18 04:41:41;;;;;;;24.83;9.27;;;4.00;93.10;;;;;;5038380;28;20412;-83
2021/01/18 04:44:40;;;;;;;20.90;8.90;;;4.00;93.10;;;;;;5039216;28;20400;-84
2021/01/18 04:47:13;;;;;;;20.70;8.40;;;4.00;93.10;;;;;;5026340;28;20458;-83
2021/01/18 04:49:42;;;;;;;21.00;9.40;;;4.00;93.10;;;;;;5028143;28;20514;-84
2021/01/18 04:52:21;;;;;;;18.80;10.03;;;4.00;93.50;;;;;;5023862;28;20432;-84
2021/01/18 04:54:54;;;;;;;14.70;9.33;;;4.00;93.10;;;;;;5025627;28;20420;-83
2021/01/18 04:57:37;;;;;;;24.77;9.97;;;4.00;93.10;;;;;;5009939;28;20499;-85
2021/01/18 05:00:09;;;;;;;20.20;10.03;;;4.00;93.10;;;;;;5010745;28;20444;-84
2021/01/18 05:03:02;;;;;;;28.70;8.57;;;4.00;93.40;;;;;;5026535;28;20417;-83
2021/01/18 05:05:35;;;;;;;20.97;9.23;;;4.00;93.10;;;;;;5044550;28;20467;-83
2021/01/18 05:08:06;;;;;;;22.93;9.43;;;4.00;93.00;;;;;;5042806;28;20431;-83
2021/01/18 05:10:41;;;;;;;22.93;9.47;;;4.00;93.00;;;;;;5025810;28;20421;-82
2021/01/18 05:13:07;;;;;;;21.10;9.30;;;4.00;93.00;;;;;;5038204;28;20423;-83
2021/01/18 05:15:35;;;;;;;18.50;8.73;;;4.00;93.00;;;;;;5045640;28;20461;-83
2021/01/18 05:18:06;;;;;;;23.20;11.30;;;4.00;93.00;;;;;;5045655;28;20173;-83
2021/01/18 05:20:34;;;;;;;14.83;9.50;;;4.00;93.00;;;;;;5023250;28;20425;-82
2021/01/18 05:23:07;;;;;;;20.13;10.17;;;4.00;93.00;;;;;;5046750;28;20425;-83
2021/01/18 05:25:34;;;;;;;21.50;10.63;;;4.00;93.00;;;;;;5044981;28;20485;-84
2021/01/18 05:28:08;;;;;;;26.93;11.07;;;4.10;93.00;;;;;;5044764;28;20416;-85
2021/01/18 05:30:48;;;;;;;21.70;10.77;;;4.10;92.90;;;;;;5029577;28;20433;-84
2021/01/18 05:33:15;;;;;;;17.20;9.60;;;4.10;92.90;;;;;;5025596;28;20463;-82
2021/01/18 05:35:51;;;;;;;25.73;11.20;;;4.10;92.90;;;;;;5026060;28;20434;-83
2021/01/18 05:38:18;;;;;;;21.83;10.57;;;4.00;92.90;;;;;;5043435;28;20443;-83
2021/01/18 05:40:49;;;;;;;26.30;10.63;;;4.00;92.90;;;;;;5032967;28;20424;-83
2021/01/18 05:43:19;;;;;;;17.70;10.47;;;4.10;93.00;;;;;;5032449;28;20720;-84
2021/01/18 05:45:46;;;;;;;22.60;11.30;;;4.10;93.00;;;;;;5047877;28;20453;-84
2021/01/18 05:48:35;;;;;;;20.03;9.77;;;4.10;92.90;;;;;;5025420;28;20400;-83
2021/01/18 05:51:09;;;;;;;22.77;10.90;;;4.10;92.90;;;;;;5032717;28;20420;-84
2021/01/18 05:53:43;;;;;;;22.33;10.10;;;4.10;92.90;;;;;;5015575;28;20996;-84
2021/01/18 05:56:39;;;;;;;18.97;9.10;;;4.10;92.90;;;;;;5033208;28;20462;-83
2021/01/18 05:59:28;;;;;;;25.03;10.07;;;4.00;92.90;;;;;;5053058;28;20418;-84
2021/01/18 06:02:04;;;;;;;23.57;10.10;;;4.00;93.00;;;;;;5035736;28;20424;-83
2021/01/18 06:04:43;;;;;;;21.43;9.57;;;4.00;93.00;;;;;;5027609;28;20424;-84
2021/01/18 06:07:24;;;;;;;26.87;10.67;;;4.00;93.00;;;;;;5022302;28;20425;-82
2021/01/18 06:09:56;;;;;;;28.47;9.90;;;4.00;93.00;;;;;;5016429;28;20544;-82
2021/01/18 06:12:27;;;;;;;22.77;11.93;;;4.00;93.00;;;;;;5049611;28;20412;-83
2021/01/18 06:15:10;;;;;;;15.33;10.30;;;4.00;93.00;;;;;;5024801;28;20869;-83
2021/01/18 06:17:57;;;;;;;17.77;10.50;;;4.00;93.00;;;;;;5008013;28;20402;-83
2021/01/18 06:20:30;;;;;;;26.63;13.40;;;4.00;93.00;;;;;;5043946;28;20417;-83
2021/01/18 06:23:02;;;;;;;23.03;12.27;;;4.00;93.00;;;;;;5048612;28;20777;-83
2021/01/18 06:25:40;;;;;;;25.40;11.50;;;4.00;93.00;;;;;;5052825;28;20488;-83
2021/01/18 06:28:25;;;;;;;24.33;11.53;;;4.00;93.10;;;;;;5045275;28;20408;-83
2021/01/18 06:30:55;;;;;;;27.77;12.10;;;4.00;93.10;;;;;;5063550;28;20922;-84
2021/01/18 06:33:49;;;;;;;27.60;12.27;;;4.00;93.10;;;;;;5029993;28;20404;-83
2021/01/18 06:36:23;;;;;;;29.90;11.50;;;4.00;93.10;;;;;;5026838;28;20432;-83
2021/01/18 06:38:58;;;;;;;31.00;11.70;;;4.00;93.20;;;;;;5044483;28;20415;-83
2021/01/18 06:41:32;;;;;;;27.67;11.77;;;4.10;93.20;;;;;;5042613;28;20404;-83
2021/01/18 06:43:59;;;;;;;21.63;10.63;;;4.10;93.20;;;;;;5043511;28;20757;-83
2021/01/18 06:46:38;;;;;;;24.23;10.73;;;4.10;93.60;;;;;;5026595;28;20483;-83
2021/01/18 06:49:06;;;;;;;25.00;11.93;;;4.20;93.20;;;;;;5038075;28;20439;-83
2021/01/18 06:51:38;;;;;;;36.27;11.60;;;4.20;93.10;;;;;;5026582;28;20767;-82
2021/01/18 06:54:15;;;;;;;33.83;11.20;;;4.20;93.00;;;;;;5020594;28;21044;-83
2021/01/18 06:56:41;;;;;;;19.67;10.43;;;4.20;93.00;;;;;;5042440;28;20445;-83
2021/01/18 06:59:25;;;;;;;23.03;11.23;;;4.20;93.00;;;;;;5028839;28;20427;-84
2021/01/18 07:02:31;;;;;;;28.87;13.27;;;4.20;93.00;;;;;;5044801;28;20224;-85
2021/01/18 07:05:04;;;;;;;26.73;12.30;;;4.20;93.00;;;;;;5026944;28;20467;-84
2021/01/18 07:07:33;;;;;;;26.57;14.50;;;4.20;92.90;;;;;;5054928;28;20445;-83
2021/01/18 07:10:02;;;;;;;22.03;10.57;;;4.20;92.90;;;;;;5030954;28;20492;-83
2021/01/18 07:12:32;;;;;;;33.40;11.97;;;4.20;92.90;;;;;;5047805;28;20512;-84
2021/01/18 07:15:04;;;;;;;28.23;12.63;;;4.20;92.80;;;;;;5059336;28;20431;-83
2021/01/18 07:17:55;;;;;;;17.60;9.93;;;4.30;92.80;;;;;;5051046;28;20409;-84
2021/01/18 07:20:43;;;;;;;20.70;9.20;;;4.30;92.80;;;;;;5027798;28;20440;-82
2021/01/18 07:23:18;;;;;;;24.03;11.47;;;4.30;92.80;;;;;;5036581;28;20407;-84
2021/01/18 07:26:09;;;;;;;25.60;11.30;;;4.30;92.70;;;;;;5065888;28;20893;-84
2021/01/18 07:28:36;;;;;;;20.23;10.10;;;4.30;92.80;;;;;;5064301;28;20405;-83
2021/01/18 07:31:08;;;;;;;21.43;10.30;;;4.30;92.70;;;;;;5048206;28;20412;-83
2021/01/18 07:33:47;;;;;;;25.50;11.03;;;4.30;92.70;;;;;;5032052;28;20448;-84
2021/01/18 07:36:45;;;;;;;25.17;10.93;;;4.40;92.70;;;;;;5048151;28;20455;-83
2021/01/18 07:39:43;;;;;;;21.10;9.77;;;4.40;92.70;;;;;;5003301;28;20428;-84
2021/01/18 07:42:43;;;;;;;28.53;11.20;;;4.40;92.70;;;;;;5026485;28;20421;-83
2021/01/18 07:45:18;;;;;;;23.20;8.73;;;4.40;92.70;;;;;;5040994;22;20472;-85
2021/01/18 07:47:56;;;;;;;18.23;9.97;;;4.40;92.60;;;;;;5067436;28;20416;-86
2021/01/18 07:50:39;;;;;;;26.03;11.70;;;4.40;92.60;;;;;;5046824;28;20443;-87
2021/01/18 07:53:22;;;;;;;24.00;10.73;;;4.40;92.60;;;;;;5032477;28;20417;-88
2021/01/18 07:56:10;;;;;;;20.40;9.90;;;4.50;92.60;;;;;;5043528;28;20523;-88
2021/01/18 07:58:55;;;;;;;27.93;12.03;;;4.50;92.50;;;;;;5015580;28;20436;-86
2021/01/18 08:01:39;;;;;;;27.33;10.40;;;4.50;92.50;;;;;;5034943;28;20936;-79
2021/01/18 08:04:33;;;;;;;16.40;9.80;;;4.60;92.50;;;;;;5033903;28;20437;-79
2021/01/18 08:07:07;;;;;;;19.17;9.20;;;4.60;92.40;;;;;;5028314;28;20425;-79
2021/01/18 08:10:17;;;;;;;38.30;10.57;;;4.60;92.30;;;;;;5039035;28;20501;-80
2021/01/18 08:12:46;;;;;;;26.13;10.20;;;4.60;92.20;;;;;;5019733;28;20467;-78
2021/01/18 08:15:30;;;;;;;25.70;10.97;;;4.60;92.20;;;;;;5032261;28;20442;-78
2021/01/18 08:18:29;;;;;;;37.87;10.73;;;4.70;92.20;;;;;;5019965;28;20445;-78
2021/01/18 08:20:58;;;;;;;19.97;10.07;;;4.70;92.20;;;;;;5036220;28;20783;-77
2021/01/18 08:23:43;;;;;;;25.30;8.90;;;4.70;92.10;;;;;;5038048;28;20778;-79
2021/01/18 08:26:10;;;;;;;19.73;10.63;;;4.70;92.10;;;;;;5029185;28;20499;-78
2021/01/18 08:28:36;;;;;;;31.63;11.40;;;4.80;92.00;;;;;;5037483;28;20445;-78
2021/01/18 08:31:02;;;;;;;36.00;12.10;;;4.80;92.00;;;;;;5018710;28;20425;-78
2021/01/18 08:33:31;;;;;;;17.90;10.40;;;4.80;92.00;;;;;;5038284;28;20166;-79
2021/01/18 08:35:57;;;;;;;24.83;9.33;;;4.80;91.90;;;;;;5039986;28;20428;-78
2021/01/18 08:38:26;;;;;;;32.00;14.53;;;4.80;91.90;;;;;;5040226;28;20448;-78
2021/01/18 08:41:11;;;;;;;26.20;10.30;;;4.90;91.90;;;;;;5043196;28;20408;-77
2021/01/18 08:43:53;;;;;;;26.00;11.20;;;4.90;91.70;;;;;;5028056;28;20603;-78
2021/01/18 08:46:36;;;;;;;25.43;11.20;;;5.00;91.60;;;;;;5038422;28;20471;-78
2021/01/18 08:49:21;;;;;;;32.73;10.40;;;5.10;91.60;;;;;;5039300;28;20491;-79
2021/01/18 08:51:49;;;;;;;32.10;11.57;;;5.10;91.40;;;;;;5039539;28;20408;-78
2021/01/18 08:54:38;;;;;;;25.70;11.37;;;5.20;91.30;;;;;;5023161;28;20429;-79
2021/01/18 08:57:27;;;;;;;25.50;10.70;;;5.20;91.20;;;;;;5034396;28;20421;-80
2021/01/18 09:00:05;;;;;;;29.53;12.37;;;5.30;91.20;;;;;;5043254;28;20440;-79
2021/01/18 09:02:31;;;;;;;25.20;10.77;;;5.30;91.20;;;;;;5027449;28;21030;-79
2021/01/18 09:05:11;;;;;;;30.87;13.17;;;5.40;91.10;;;;;;5025046;28;20484;-80
2021/01/18 09:07:39;;;;;;;30.50;12.20;;;5.40;91.00;;;;;;5040466;28;20680;-78
2021/01/18 09:10:05;;;;;;;27.83;11.80;;;5.40;90.90;;;;;;5041078;28;20425;-78
2021/01/18 09:12:33;;;;;;;32.80;13.57;;;5.40;90.80;;;;;;5044649;28;20448;-77
2021/01/18 09:15:06;;;;;;;28.13;12.20;;;5.50;90.70;;;;;;5051093;28;20488;-78
2021/01/18 09:17:32;;;;;;;31.57;13.30;;;5.50;90.80;;;;;;5052127;28;20421;-78
2021/01/18 09:20:03;;;;;;;22.90;13.20;;;5.50;90.70;;;;;;5044509;28;20443;-79
2021/01/18 09:22:30;;;;;;;28.33;12.60;;;5.50;90.70;;;;;;5043568;28;20234;-80
2021/01/18 09:24:56;;;;;;;28.53;13.17;;;5.50;90.50;;;;;;5027672;28;20479;-79
2021/01/18 09:27:23;;;;;;;22.80;11.73;;;5.50;90.30;;;;;;5035361;28;20429;-78
2021/01/18 09:30:02;;;;;;;31.13;12.40;;;5.50;90.20;;;;;;5025257;28;20441;-79
2021/01/18 09:32:29;;;;;;;37.30;14.30;;;5.60;90.10;;;;;;5038836;28;20398;-78
2021/01/18 09:35:06;;;;;;;36.87;14.00;;;5.60;90.00;;;;;;5033583;28;20413;-79
2021/01/18 09:37:32;;;;;;;25.97;13.60;;;5.80;89.90;;;;;;5041602;28;20494;-80
2021/01/18 09:40:02;;;;;;;21.00;11.60;;;6.00;88.50;;;;;;5040548;28;20441;-79
2021/01/18 09:42:30;;;;;;;28.10;11.77;;;6.10;89.20;;;;;;5039984;28;20796;-79
2021/01/18 09:44:56;;;;;;;27.93;11.53;;;6.20;88.40;;;;;;5038288;28;20461;-79
2021/01/18 09:47:23;;;;;;;38.40;13.27;;;6.30;87.80;;;;;;5041435;28;20433;-80
2021/01/18 09:49:49;;;;;;;29.50;12.60;;;6.50;86.90;;;;;;5026241;28;20218;-79
2021/01/18 09:52:15;;;;;;;23.83;10.30;;;6.70;86.00;;;;;;5033816;28;20484;-79
2021/01/18 09:54:46;;;;;;;21.93;10.73;;;6.70;83.80;;;;;;5032943;28;20173;-78
2021/01/18 09:57:17;;;;;;;23.80;10.60;;;6.70;83.90;;;;;;5035241;28;20169;-79
2021/01/18 09:59:45;;;;;;;24.47;10.20;;;6.70;83.70;;;;;;5038908;28;20471;-78
2021/01/18 10:02:12;;;;;;;24.53;9.90;;;6.70;83.10;;;;;;5041879;28;20413;-79
2021/01/18 10:04:40;;;;;;;30.00;10.57;;;6.80;83.30;;;;;;5044236;28;20428;-78
2021/01/18 10:07:11;;;;;;;20.30;9.73;;;6.90;83.00;;;;;;5040602;28;20468;-78
2021/01/18 10:09:40;;;;;;;20.77;10.40;;;6.90;82.40;;;;;;5007605;28;20483;-77
2021/01/18 10:12:11;;;;;;;21.77;10.40;;;6.90;82.70;;;;;;5038910;28;20426;-78
2021/01/18 10:14:38;;;;;;;23.90;9.80;;;6.90;82.90;;;;;;5006171;28;20803;-79
2021/01/18 10:17:10;;;;;;;20.00;9.63;;;6.80;82.60;;;;;;5024619;28;20441;-78
2021/01/18 10:19:40;;;;;;;19.63;9.90;;;6.70;82.40;;;;;;5286368;22;20491;-83
2021/01/18 10:22:19;;;;;;;15.20;7.40;;;6.60;81.50;;;;;;5042071;28;20450;-82
2021/01/18 10:24:57;;;;;;;17.80;8.20;;;6.50;82.00;;;;;;5057997;28;20491;-82
2021/01/18 10:27:27;;;;;;;21.97;8.37;;;6.50;82.00;;;;;;5036713;28;20480;-83
2021/01/18 10:30:14;;;;;;;16.33;7.63;;;6.50;82.50;;;;;;5038624;28;20467;-79
2021/01/18 10:32:44;;;;;;;26.77;7.13;;;6.50;82.10;;;;;;5030882;28;20448;-81
2021/01/18 10:35:23;;;;;;;14.13;6.33;;;6.50;81.40;;;;;;5039262;28;20492;-81
2021/01/18 10:37:50;;;;;;;12.13;5.43;;;6.40;81.40;;;;;;5039984;28;20416;-80
2021/01/18 10:40:23;;;;;;;12.83;5.53;;;6.40;81.60;;;;;;5039937;28;20428;-81
2021/01/18 10:42:53;;;;;;;14.40;5.20;;;6.40;81.80;;;;;;5034739;28;20516;-80
2021/01/18 10:45:25;;;;;;;12.13;5.60;;;6.40;81.10;;;;;;5020389;28;20516;-80
2021/01/18 10:47:55;;;;;;;10.13;6.00;;;6.40;81.80;;;;;;5036874;28;20453;-82
2021/01/18 10:50:29;;;;;;;12.53;5.23;;;6.50;82.10;;;;;;5033015;28;20432;-82
2021/01/18 10:53:04;;;;;;;12.77;5.43;;;6.50;81.40;;;;;;5036090;28;20455;-81
2021/01/18 10:55:30;;;;;;;9.37;3.87;;;6.50;81.00;;;;;;5026321;28;20445;-82
2021/01/18 10:57:56;;;;;;;19.20;5.03;;;6.40;80.60;;;;;;5023746;28;20448;-81
2021/01/18 11:00:27;;;;;;;11.13;3.77;;;6.40;81.40;;;;;;5040963;28;20425;-83
2021/01/18 11:03:02;;;;;;;9.60;5.00;;;6.40;81.10;;;;;;5039638;28;21051;-81
2021/01/18 11:05:38;;;;;;;16.60;5.10;;;6.50;81.20;;;;;;5038508;28;20453;-82
2021/01/18 11:08:10;;;;;;;11.03;5.20;;;6.50;80.90;;;;;;5039263;28;20463;-81
2021/01/18 11:10:39;;;;;;;9.20;4.10;;;6.60;80.80;;;;;;5021317;28;20508;-82
2021/01/18 11:13:08;;;;;;;19.83;4.70;;;6.70;80.80;;;;;;5023096;28;20440;-81
2021/01/18 11:15:42;;;;;;;9.90;3.77;;;6.80;80.30;;;;;;5007000;28;20445;-80
2021/01/18 11:18:10;;;;;;;11.87;4.10;;;6.80;79.80;;;;;;5019925;28;20895;-82
2021/01/18 11:20:38;;;;;;;8.27;4.60;;;7.00;79.40;;;;;;4991467;28;646281;-79
2021/01/18 11:23:09;;;;;;;7.13;3.60;;;7.10;79.40;;;;;;5006443;28;20250;-81
2021/01/18 11:25:36;;;;;;;14.33;4.80;;;7.20;78.70;;;;;;5019989;28;20492;-80
2021/01/18 11:28:13;;;;;;;17.33;4.67;;;7.30;77.80;;;;;;5028693;28;20491;-81
2021/01/18 11:30:40;;;;;;;14.20;4.97;;;7.20;77.00;;;;;;5039694;28;20491;-80
2021/01/18 11:33:09;;;;;;;17.80;4.70;;;7.20;76.60;;;;;;5037800;28;20404;-80
2021/01/18 11:35:35;;;;;;;11.70;3.70;;;7.00;76.90;;;;;;5021189;28;20452;-81
2021/01/18 11:38:01;;;;;;;15.53;3.90;;;7.00;77.60;;;;;;5003505;28;20464;-82
2021/01/18 11:40:27;;;;;;;9.00;3.80;;;7.00;77.90;;;;;;5038726;28;20412;-82
2021/01/18 11:42:56;;;;;;;15.43;3.83;;;7.00;77.10;;;;;;5040072;28;20180;-79
2021/01/18 11:45:22;;;;;;;13.60;4.07;;;7.00;76.90;;;;;;5039060;28;20217;-81
2021/01/18 11:47:48;;;;;;;13.27;4.07;;;7.10;77.70;;;;;;5043781;28;20456;-83
2021/01/18 11:50:13;;;;;;;18.80;4.70;;;7.20;77.20;;;;;;5027893;28;20198;-81
2021/01/18 11:52:43;;;;;;;14.77;4.67;;;7.20;76.70;;;;;;5049049;28;20208;-81
2021/01/18 11:55:11;;;;;;;8.50;3.57;;;7.30;76.50;;;;;;5042028;28;20189;-80
2021/01/18 11:57:47;;;;;;;14.40;4.17;;;7.30;76.10;;;;;;5049772;28;20400;-81
2021/01/18 12:00:27;;;;;;;16.07;6.07;;;7.30;75.90;;;;;;5053741;28;20424;-80
2021/01/18 12:02:55;;;;;;;16.73;3.90;;;7.40;76.30;;;;;;5052384;28;20415;-81
2021/01/18 12:05:25;;;;;;;19.70;4.50;;;7.40;76.10;;;;;;5053209;28;20471;-82
2021/01/18 12:07:51;;;;;;;13.87;4.23;;;7.40;74.90;;;;;;5048310;28;20451;-83
2021/01/18 12:10:17;;;;;;;22.00;5.17;;;7.40;74.90;;;;;;5047038;28;20511;-82
2021/01/18 12:12:42;;;;;;;8.40;2.70;;;7.40;74.30;;;;;;5028245;28;20504;-83
2021/01/18 12:15:09;;;;;;;14.17;5.00;;;7.40;74.50;;;;;;5055165;28;20179;-82
2021/01/18 12:17:41;;;;;;;14.00;3.27;;;7.40;73.70;;;;;;5027617;28;20639;-85
2021/01/18 12:20:13;;;;;;;9.37;2.77;;;7.40;73.10;;;;;;5025695;28;20433;-84
2021/01/18 12:22:39;;;;;;;11.20;4.37;;;7.40;73.40;;;;;;5021120;28;20417;-83
2021/01/18 12:25:05;;;;;;;7.40;3.07;;;7.50;73.50;;;;;;5027968;28;20456;-83
2021/01/18 12:27:31;;;;;;;11.60;3.27;;;7.50;73.30;;;;;;5045072;28;20744;-84
2021/01/18 12:29:58;;;;;;;11.97;4.17;;;7.60;73.20;;;;;;5047935;28;20480;-82
2021/01/18 12:32:24;;;;;;;9.30;2.93;;;7.70;72.90;;;;;;5040806;28;20398;-84
2021/01/18 12:34:49;;;;;;;9.93;3.27;;;7.70;72.10;;;;;;5022635;28;20432;-82
2021/01/18 12:37:15;;;;;;;14.17;2.60;;;7.70;72.40;;;;;;5043913;28;20436;-84
2021/01/18 12:39:41;;;;;;;13.17;2.60;;;7.80;71.90;;;;;;5025660;28;20168;-81
2021/01/18 12:42:08;;;;;;;11.27;2.90;;;7.80;71.40;;;;;;5027370;28;20636;-83
2021/01/18 12:44:34;;;;;;;8.07;2.77;;;7.80;71.20;;;;;;5027117;28;20620;-82
2021/01/18 12:47:01;;;;;;;29.23;4.53;;;7.70;70.80;;;;;;5041801;28;20491;-85
2021/01/18 12:49:27;;;;;;;8.33;2.70;;;7.70;71.10;;;;;;5030348;28;20444;-84
2021/01/18 12:51:53;;;;;;;8.07;3.50;;;7.60;70.50;;;;;;5027027;28;20412;-84
2021/01/18 12:54:19;;;;;;;8.37;2.50;;;7.60;71.40;;;;;;5045551;28;20648;-82
2021/01/18 12:56:44;;;;;;;13.10;4.20;;;7.70;70.10;;;;;;5042892;28;20190;-82
2021/01/18 12:59:10;;;;;;;8.73;3.40;;;7.60;70.10;;;;;;5044502;28;20409;-84
2021/01/18 13:01:36;;;;;;;12.13;2.30;;;7.70;70.80;;;;;;5045449;28;20175;-82
2021/01/18 13:04:03;;;;;;;12.43;3.00;;;7.70;70.70;;;;;;5044753;28;20401;-82
2021/01/18 13:06:37;;;;;;;6.67;2.73;;;7.80;69.90;;;;;;5029971;28;20631;-82
2021/01/18 13:09:21;;;;;;;14.83;3.03;;;7.80;70.00;;;;;;5045468;28;20435;-83
2021/01/18 13:11:49;;;;;;;7.43;2.73;;;7.80;69.40;;;;;;5048436;28;20431;-84
2021/01/18 13:14:15;;;;;;;10.17;2.23;;;7.80;68.70;;;;;;5046249;28;20429;-84
2021/01/18 13:16:41;;;;;;;8.70;3.60;;;7.80;69.00;;;;;;5025803;28;20437;-83
2021/01/18 13:19:07;;;;;;;12.93;2.67;;;7.70;68.70;;;;;;5048089;28;20456;-85